Résultats de la compétition "Chpt de FR Long Dist SO St PEE 280810" du 28-08-2010 organisée par la ligue AQ
     
  Télécharger le fichier CSV.  
     
     

 Circuit "H"

Licence Nom Prénom Temps CN
précédent
Score sur
la course
Différence
2349HELIOTClaude0:42:5333484379+1031
10888DAYRIESMichel0:43:4829544287+1333
1448KENANEAbdelkader0:44:3746834209-474
2817CROCHETGerard0:46:2933364040+704
6886FRANTZFrancoise0:46:5235164007+491
1380DIEUDONNEMadeleine0:48:5640253837-188
16403EUZENJ-Paul0:49:0130993831+732
116PIGERAlbert0:49:57N/A3759N/A
7574OUDINM-Reine0:50:3839203708-212
14884CONIELAnne0:50:5136513693+42
6491ROBERTFrancoise0:52:4042643565-699
1052DOMENICIJ-Claude0:52:4033623565+203
1000LEFOUESTJoseph0:53:1137513531-220
2401DEVILLENelly0:54:3344023442-960
6113GROCClaire0:54:4431683431+263
295PEETERSSimone0:55:1328313401+570
15228CHAUVINEAUChristine0:56:2024143333+919
1087ROBERTMartine0:57:1037323285-447
4671POGUPaulette0:57:3927973257+460
23248BERNARDOTBlandine0:58:33N/A3207N/A
1948POULAINOdile0:59:3128523155+303
5033THIEBAULTMonique1:01:5641353032-1103
1106NATALIAnnie1:02:0228693027+158
931SIMONETMarie1:03:2122562964+708
3302JEANPIERREM-Therese1:03:3931282950-178
21271DELANNOYAurore1:03:4913802942+1562
1363FERRAGERene1:05:1731022876-226
4389THIEBAULDGeorges1:08:3233642740-624
16039LEMBEZATM-Christine1:09:3921642696+532
1438BOUSQUETMichel1:11:5638322610-1222
16634BAUDOINAnnie1:13:0122382572+334
2557VOGTChristiane1:13:1836492562-1087
12059GROSJEANA-Marie1:14:2223202525+205
96CABONMonique1:15:1724602494+34
117PIGERGhislaine1:15:22N/A2491N/A
701ABISSEGisele1:15:4333702480-890
4392DODINGenevieve1:16:2621242457+333
23315JEANNERETChristelle1:16:27N/A2456N/A
12354GROSJEANPierre1:18:0725212404-117
2680KIEFFERMireille1:18:1727852399-386
14245RICHARDNicole1:18:2931132393-720
8954BASTIEN-FATHNicole1:18:4521942384+190
5497COCAULTYvonne1:21:5229462294-652
1416CHAVERNACBruno1:22:1319682284+316
13991POUPIERClaudine1:23:2622312251+20
2413ROLLETM-Madeleine1:24:0926032231-372
13041RESSOUCHEVeronique1:25:0602207N/A
10804DAVIDSimone1:25:088502206+1356
6443GEOFFROYNicole1:25:4225352191-344
2115SXAYMichelle1:25:45N/A2190N/A
1443BEGUINOTJacques1:26:3523592169-190
22314CHARDOTUlrike1:27:2514752148+673
6826DUVOUXFrance1:27:3327232145-578
11368LAUNEYNoella1:29:1520962104+8
15894LUDEWIG-JAMESCarol1:33:0421282018-110
725LAURENTTherese1:33:1121682015-153
1674FINOBeatrice1:35:3119941966-28
1001LEFOUESTM-Therese1:40:3921151866-249
4490THIEBAULTM-Paule1:43:5919291806-123
10010SIMONDenise1:56:5415741606+32
1437BOUSQUETHuguette2:11:2617851429-356
5804BREMAUDVeronique2:15:3921071384-723
1417CHAVERNACChantal2:48:099541117+163
3918VERTGenevieve3:36:13923868-55
2888MOULIEREM-BernadettN/A31520-3152
11308BOULESTREAUFrancoiseN/A21030-2103
22864MAYE-LASSERREMarielleN/AN/A0N/A
9393JAFFRYValerieN/A22380-2238
18401ROCHEBernadetteN/AN/A0N/A
23123COURTOISAgnèsN/AN/A0N/A
10394INDEAUXCatherineN/A21060-2106
14632ALLANCONClaudineN/A19240-1924
20668BLANCHARDMurielN/A00N/A
2487JOLYFrancoiseN/AN/A0N/A

  Indice de confiance du circuit (moyenne des différences entre CN et score sur la course des 3 à 10 premiers) : 148






 Retour